Bass River, Massachusetts
Current Conditions -  °F | °C
As of 6:56 AM on Friday 24 Oct 2014 (Local Time) from KHYA Reporting Station
Light Rain Light Rain  
Wind Chill: 51°   Ceiling: 800
Heat Index: 51°   Visibility: 2.5mi
Dew Point: 49°   Wind: 15mph
Humidity: 92%   Direction: 350°N
Pressure: 29.6"   Gusts: 31mph
Location:  41.6739°N, 70.1961°W
Report Text: KHYA 241056Z 35013G27KT 2 1/2SM -RA BR BKN008 OVC013 11/09 A2960 RMK AO2 PK WND 35027/1050 SLP024 P0001 T01060094
Loading
Personal Weather Stations






























Interactive Weather Map
Tropical Storm Tracking
New forecast layout! Learn more

10-Day Weather Forecast

Advertisements
Track Severe Weather on mobile